sensor_id;sensor_type;location;lat;lon;timestamp;pressure;altitude;pressure_sealevel;temperature
53512;BMP280;39392;52.832;13.816;2024-02-26T00:01:42;100309.53;;;19.45
53512;BMP280;39392;52.832;13.816;2024-02-26T00:04:12;100305.97;;;19.45
53512;BMP280;39392;52.832;13.816;2024-02-26T00:06:39;100304.28;;;19.44
53512;BMP280;39392;52.832;13.816;2024-02-26T00:09:08;100298.19;;;19.41
53512;BMP280;39392;52.832;13.816;2024-02-26T00:11:37;100296.31;;;19.42
53512;BMP280;39392;52.832;13.816;2024-02-26T00:14:04;100300.91;;;19.41
53512;BMP280;39392;52.832;13.816;2024-02-26T00:16:30;100297.38;;;19.41
53512;BMP280;39392;52.832;13.816;2024-02-26T00:18:57;100297.38;;;19.41
53512;BMP280;39392;52.832;13.816;2024-02-26T00:21:24;100295.50;;;19.41
53512;BMP280;39392;52.832;13.816;2024-02-26T00:23:50;100285.66;;;19.40
53512;BMP280;39392;52.832;13.816;2024-02-26T00:26:17;100295.50;;;19.41
53512;BMP280;39392;52.832;13.816;2024-02-26T00:28:44;100291.94;;;19.41
53512;BMP280;39392;52.832;13.816;2024-02-26T00:31:10;100289.22;;;19.41
53512;BMP280;39392;52.832;13.816;2024-02-26T00:33:37;100280.41;;;19.39
53512;BMP280;39392;52.832;13.816;2024-02-26T00:36:04;100273.94;;;19.40
53512;BMP280;39392;52.832;13.816;2024-02-26T00:38:31;100276.00;;;19.38
53512;BMP280;39392;52.832;13.816;2024-02-26T00:40:58;100268.69;;;19.38
53512;BMP280;39392;52.832;13.816;2024-02-26T00:43:24;100268.88;;;19.37
53512;BMP280;39392;52.832;13.816;2024-02-26T00:45:50;100275.34;;;19.36
53512;BMP280;39392;52.832;13.816;2024-02-26T00:48:19;100268.22;;;19.35
53512;BMP280;39392;52.832;13.816;2024-02-26T00:50:45;100265.50;;;19.35
53512;BMP280;39392;52.832;13.816;2024-02-26T00:53:12;100257.34;;;19.35
53512;BMP280;39392;52.832;13.816;2024-02-26T00:55:38;100255.50;;;19.35
53512;BMP280;39392;52.832;13.816;2024-02-26T00:58:05;100259.22;;;19.34
53512;BMP280;39392;52.832;13.816;2024-02-26T01:00:32;100255.50;;;19.35
53512;BMP280;39392;52.832;13.816;2024-02-26T01:02:58;100255.50;;;19.35
53512;BMP280;39392;52.832;13.816;2024-02-26T01:05:26;100261.78;;;19.36
53512;BMP280;39392;52.832;13.816;2024-02-26T01:07:53;100263.66;;;19.35
53512;BMP280;39392;52.832;13.816;2024-02-26T01:10:20;100264.66;;;19.34
53512;BMP280;39392;52.832;13.816;2024-02-26T01:12:46;100263.81;;;19.34
53512;BMP280;39392;52.832;13.816;2024-02-26T01:15:13;100269.25;;;19.34
53512;BMP280;39392;52.832;13.816;2024-02-26T01:17:41;100262.16;;;19.33
53512;BMP280;39392;52.832;13.816;2024-02-26T01:20:08;100252.94;;;19.34
53512;BMP280;39392;52.832;13.816;2024-02-26T01:22:35;100255.88;;;19.32
53512;BMP280;39392;52.832;13.816;2024-02-26T01:25:02;100253.31;;;19.31
53512;BMP280;39392;52.832;13.816;2024-02-26T01:27:28;100258.75;;;19.31
53512;BMP280;39392;52.832;13.816;2024-02-26T01:29:55;100265.91;;;19.32
53512;BMP280;39392;52.832;13.816;2024-02-26T01:32:21;100270.50;;;19.31
53512;BMP280;39392;52.832;13.816;2024-02-26T01:34:48;100265.06;;;19.31
53512;BMP280;39392;52.832;13.816;2024-02-26T01:37:15;100267.78;;;19.31
53512;BMP280;39392;52.832;13.816;2024-02-26T01:39:41;100260.06;;;19.35
53512;BMP280;39392;52.832;13.816;2024-02-26T01:42:08;100258.84;;;19.37
53512;BMP280;39392;52.832;13.816;2024-02-26T01:44:34;100260.94;;;19.35
53512;BMP280;39392;52.832;13.816;2024-02-26T01:47:01;100262.59;;;19.36
53512;BMP280;39392;52.832;13.816;2024-02-26T01:49:29;100266.16;;;19.37
53512;BMP280;39392;52.832;13.816;2024-02-26T01:51:56;100267.84;;;19.38
53512;BMP280;39392;52.832;13.816;2024-02-26T01:54:23;100268.03;;;19.36
53512;BMP280;39392;52.832;13.816;2024-02-26T01:56:49;100271.81;;;19.35
53512;BMP280;39392;52.832;13.816;2024-02-26T01:59:17;100263.44;;;19.37
53512;BMP280;39392;52.832;13.816;2024-02-26T02:01:44;100259.91;;;19.36
53512;BMP280;39392;52.832;13.816;2024-02-26T02:04:11;100260.94;;;19.35
53512;BMP280;39392;52.832;13.816;2024-02-26T02:06:38;100256.34;;;19.36
53512;BMP280;39392;52.832;13.816;2024-02-26T02:09:05;100256.50;;;19.34
53512;BMP280;39392;52.832;13.816;2024-02-26T02:11:34;100247.53;;;19.34
53512;BMP280;39392;52.832;13.816;2024-02-26T02:14:00;100253.78;;;19.34
53512;BMP280;39392;52.832;13.816;2024-02-26T02:16:27;100256.72;;;19.33
53512;BMP280;39392;52.832;13.816;2024-02-26T02:18:53;100242.28;;;19.32
53512;BMP280;39392;52.832;13.816;2024-02-26T02:21:20;100251.28;;;19.33
53512;BMP280;39392;52.832;13.816;2024-02-26T02:23:47;100247.72;;;19.32
53512;BMP280;39392;52.832;13.816;2024-02-26T02:26:15;100256.91;;;19.31
53512;BMP280;39392;52.832;13.816;2024-02-26T02:28:42;100256.03;;;19.31
53512;BMP280;39392;52.832;13.816;2024-02-26T02:31:08;100257.91;;;19.30
53512;BMP280;39392;52.832;13.816;2024-02-26T02:33:35;100267.78;;;19.31
53512;BMP280;39392;52.832;13.816;2024-02-26T02:36:02;100267.13;;;19.29
53512;BMP280;39392;52.832;13.816;2024-02-26T02:38:28;100266.28;;;19.29
53512;BMP280;39392;52.832;13.816;2024-02-26T02:40:56;100268.16;;;19.28
53512;BMP280;39392;52.832;13.816;2024-02-26T02:43:23;100263.75;;;19.27
53512;BMP280;39392;52.832;13.816;2024-02-26T02:45:49;100271.91;;;19.27
53512;BMP280;39392;52.832;13.816;2024-02-26T02:48:15;100270.88;;;19.28
53512;BMP280;39392;52.832;13.816;2024-02-26T02:50:43;100268.16;;;19.28
53512;BMP280;39392;52.832;13.816;2024-02-26T02:53:09;100269.19;;;19.27
53512;BMP280;39392;52.832;13.816;2024-02-26T02:55:36;100275.47;;;19.28
53512;BMP280;39392;52.832;13.816;2024-02-26T02:58:03;100273.75;;;19.27
53512;BMP280;39392;52.832;13.816;2024-02-26T03:00:29;100271.91;;;19.27
53512;BMP280;39392;52.832;13.816;2024-02-26T03:02:56;100272.91;;;19.26
53512;BMP280;39392;52.832;13.816;2024-02-26T03:05:22;100273.59;;;19.28
53512;BMP280;39392;52.832;13.816;2024-02-26T03:07:49;100269.19;;;19.27
53512;BMP280;39392;52.832;13.816;2024-02-26T03:10:15;100264.97;;;19.25
53512;BMP280;39392;52.832;13.816;2024-02-26T03:12:42;100267.47;;;19.26
53512;BMP280;39392;52.832;13.816;2024-02-26T03:15:08;100268.78;;;19.30
53512;BMP280;39392;52.832;13.816;2024-02-26T03:17:35;100274.41;;;19.29
53512;BMP280;39392;52.832;13.816;2024-02-26T03:20:02;100273.38;;;19.30
53512;BMP280;39392;52.832;13.816;2024-02-26T03:22:31;100267.94;;;19.30
53512;BMP280;39392;52.832;13.816;2024-02-26T03:24:58;100274.22;;;19.30
53512;BMP280;39392;52.832;13.816;2024-02-26T03:27:24;100269.81;;;19.29
53512;BMP280;39392;52.832;13.816;2024-02-26T03:29:50;100275.06;;;19.31
53512;BMP280;39392;52.832;13.816;2024-02-26T03:32:19;100274.41;;;19.29
53512;BMP280;39392;52.832;13.816;2024-02-26T03:34:45;100271.03;;;19.27
53512;BMP280;39392;52.832;13.816;2024-02-26T03:37:12;100263.56;;;19.29
53512;BMP280;39392;52.832;13.816;2024-02-26T03:39:38;100266.47;;;19.27
53512;BMP280;39392;52.832;13.816;2024-02-26T03:42:05;100272.75;;;19.28
53512;BMP280;39392;52.832;13.816;2024-02-26T03:44:31;100272.06;;;19.26
53512;BMP280;39392;52.832;13.816;2024-02-26T03:46:58;100272.91;;;19.26
53512;BMP280;39392;52.832;13.816;2024-02-26T03:49:24;100270.41;;;19.25
53512;BMP280;39392;52.832;13.816;2024-02-26T03:51:51;100283.16;;;19.24
53512;BMP280;39392;52.832;13.816;2024-02-26T03:54:17;100279.38;;;19.25
53512;BMP280;39392;52.832;13.816;2024-02-26T03:56:44;100281.28;;;19.25
53512;BMP280;39392;52.832;13.816;2024-02-26T03:59:11;100279.38;;;19.25
53512;BMP280;39392;52.832;13.816;2024-02-26T04:01:37;100289.06;;;19.28
53512;BMP280;39392;52.832;13.816;2024-02-26T04:04:03;100291.75;;;19.28
53512;BMP280;39392;52.832;13.816;2024-02-26T04:06:30;100295.97;;;19.30
53512;BMP280;39392;52.832;13.816;2024-02-26T04:08:57;100299.50;;;19.31
53512;BMP280;39392;52.832;13.816;2024-02-26T04:11:24;100288.66;;;19.31
53512;BMP280;39392;52.832;13.816;2024-02-26T04:13:50;100297.00;;;19.29
53512;BMP280;39392;52.832;13.816;2024-02-26T04:16:18;100287.81;;;19.30
53512;BMP280;39392;52.832;13.816;2024-02-26T04:18:45;100298.50;;;19.32
53512;BMP280;39392;52.832;13.816;2024-02-26T04:21:11;100296.63;;;19.32
53512;BMP280;39392;52.832;13.816;2024-02-26T04:23:38;100298.50;;;19.32
53512;BMP280;39392;52.832;13.816;2024-02-26T04:26:04;100300.38;;;19.31
53512;BMP280;39392;52.832;13.816;2024-02-26T04:28:31;100306.66;;;19.32
53512;BMP280;39392;52.832;13.816;2024-02-26T04:30:57;100301.88;;;19.34
53512;BMP280;39392;52.832;13.816;2024-02-26T04:33:24;100304.78;;;19.32
53512;BMP280;39392;52.832;13.816;2024-02-26T04:35:51;100301.88;;;19.34
53512;BMP280;39392;52.832;13.816;2024-02-26T04:38:17;100307.13;;;19.35
53512;BMP280;39392;52.832;13.816;2024-02-26T04:40:44;100297.94;;;19.36
53512;BMP280;39392;52.832;13.816;2024-02-26T04:43:11;100296.25;;;19.35
53512;BMP280;39392;52.832;13.816;2024-02-26T04:45:37;100307.13;;;19.35
53512;BMP280;39392;52.832;13.816;2024-02-26T04:48:03;100307.97;;;19.36
53512;BMP280;39392;52.832;13.816;2024-02-26T04:50:30;100312.38;;;19.37
53512;BMP280;39392;52.832;13.816;2024-02-26T04:52:57;100307.78;;;19.37
53512;BMP280;39392;52.832;13.816;2024-02-26T04:55:23;100311.53;;;19.36
53512;BMP280;39392;52.832;13.816;2024-02-26T04:57:50;100313.19;;;19.37
53512;BMP280;39392;52.832;13.816;2024-02-26T05:00:16;100314.03;;;19.38
53512;BMP280;39392;52.832;13.816;2024-02-26T05:02:43;100317.59;;;19.38
53512;BMP280;39392;52.832;13.816;2024-02-26T05:05:09;100324.91;;;19.38
53512;BMP280;39392;52.832;13.816;2024-02-26T05:07:40;100337.66;;;19.37
53512;BMP280;39392;52.832;13.816;2024-02-26T05:10:07;100334.75;;;19.39
53512;BMP280;39392;52.832;13.816;2024-02-26T05:12:34;100341.00;;;19.39
53512;BMP280;39392;52.832;13.816;2024-02-26T05:15:02;100341.00;;;19.39
53512;BMP280;39392;52.832;13.816;2024-02-26T05:17:29;100337.66;;;19.37
53512;BMP280;39392;52.832;13.816;2024-02-26T05:19:55;100346.66;;;19.38
53512;BMP280;39392;52.832;13.816;2024-02-26T05:22:22;100349.38;;;19.38
53512;BMP280;39392;52.832;13.816;2024-02-26T05:24:48;100351.03;;;19.39
53512;BMP280;39392;52.832;13.816;2024-02-26T05:27:15;100358.34;;;19.38
53512;BMP280;39392;52.832;13.816;2024-02-26T05:29:42;100352.09;;;19.38
53512;BMP280;39392;52.832;13.816;2024-02-26T05:32:08;100355.84;;;19.37
53512;BMP280;39392;52.832;13.816;2024-02-26T05:34:34;100366.50;;;19.38
53512;BMP280;39392;52.832;13.816;2024-02-26T05:37:01;100364.63;;;19.39
53512;BMP280;39392;52.832;13.816;2024-02-26T05:39:27;100366.50;;;19.38
53512;BMP280;39392;52.832;13.816;2024-02-26T05:41:54;100373.63;;;19.39
53512;BMP280;39392;52.832;13.816;2024-02-26T05:44:22;100374.50;;;19.40
53512;BMP280;39392;52.832;13.816;2024-02-26T05:46:48;100376.19;;;19.41
53512;BMP280;39392;52.832;13.816;2024-02-26T05:49:15;100375.34;;;19.40
53512;BMP280;39392;52.832;13.816;2024-02-26T05:51:41;100383.28;;;19.42
53512;BMP280;39392;52.832;13.816;2024-02-26T05:54:08;100391.44;;;19.42
53512;BMP280;39392;52.832;13.816;2024-02-26T05:56:36;100388.09;;;19.40
53512;BMP280;39392;52.832;13.816;2024-02-26T05:59:03;100389.41;;;19.44
53512;BMP280;39392;52.832;13.816;2024-02-26T06:01:30;100387.69;;;19.43
53512;BMP280;39392;52.832;13.816;2024-02-26T06:03:56;100385.81;;;19.44
53512;BMP280;39392;52.832;13.816;2024-02-26T06:06:23;100390.25;;;19.45
53512;BMP280;39392;52.832;13.816;2024-02-26T06:08:50;100395.66;;;19.45
53512;BMP280;39392;52.832;13.816;2024-02-26T06:11:17;100384.13;;;19.42
53512;BMP280;39392;52.832;13.816;2024-02-26T06:13:44;100394.84;;;19.44
53512;BMP280;39392;52.832;13.816;2024-02-26T06:16:10;100394.16;;;19.42
53512;BMP280;39392;52.832;13.816;2024-02-26T06:18:37;100397.72;;;19.42
53512;BMP280;39392;52.832;13.816;2024-02-26T06:21:03;100403.81;;;19.45
53512;BMP280;39392;52.832;13.816;2024-02-26T06:23:30;100408.41;;;19.44
53512;BMP280;39392;52.832;13.816;2024-02-26T06:25:56;100406.72;;;19.43
53512;BMP280;39392;52.832;13.816;2024-02-26T06:28:23;100411.31;;;19.42
53512;BMP280;39392;52.832;13.816;2024-02-26T06:30:50;100406.91;;;19.41
53512;BMP280;39392;52.832;13.816;2024-02-26T06:33:18;100400.63;;;19.41
53512;BMP280;39392;52.832;13.816;2024-02-26T06:35:45;100404.19;;;19.41
53512;BMP280;39392;52.832;13.816;2024-02-26T06:38:11;100401.69;;;19.40
53512;BMP280;39392;52.832;13.816;2024-02-26T06:40:39;100407.94;;;19.40
53512;BMP280;39392;52.832;13.816;2024-02-26T06:43:06;100413.38;;;19.40
53512;BMP280;39392;52.832;13.816;2024-02-26T06:45:32;100416.94;;;19.41
53512;BMP280;39392;52.832;13.816;2024-02-26T06:47:59;100418.63;;;19.42
53512;BMP280;39392;52.832;13.816;2024-02-26T06:50:26;100423.22;;;19.41
53512;BMP280;39392;52.832;13.816;2024-02-26T06:52:52;100420.50;;;19.41
53512;BMP280;39392;52.832;13.816;2024-02-26T06:55:19;100425.94;;;19.41
53512;BMP280;39392;52.832;13.816;2024-02-26T06:57:45;100429.50;;;19.42
53512;BMP280;39392;52.832;13.816;2024-02-26T07:00:12;100432.22;;;19.42
53512;BMP280;39392;52.832;13.816;2024-02-26T07:02:41;100427.63;;;19.42
53512;BMP280;39392;52.832;13.816;2024-02-26T07:05:08;100435.75;;;19.42
53512;BMP280;39392;52.832;13.816;2024-02-26T07:07:35;100437.44;;;19.44
53512;BMP280;39392;52.832;13.816;2024-02-26T07:10:02;100442.03;;;19.43
53512;BMP280;39392;52.832;13.816;2024-02-26T07:12:30;100438.47;;;19.42
53512;BMP280;39392;52.832;13.816;2024-02-26T07:14:56;100433.03;;;19.42
53512;BMP280;39392;52.832;13.816;2024-02-26T07:17:23;100433.88;;;19.43
53512;BMP280;39392;52.832;13.816;2024-02-26T07:19:49;100437.44;;;19.44
53512;BMP280;39392;52.832;13.816;2024-02-26T07:22:16;100440.16;;;19.44
53512;BMP280;39392;52.832;13.816;2024-02-26T07:24:42;100438.31;;;19.44
53512;BMP280;39392;52.832;13.816;2024-02-26T07:27:09;100449.19;;;19.44
53512;BMP280;39392;52.832;13.816;2024-02-26T07:29:35;100450.03;;;19.45
53512;BMP280;39392;52.832;13.816;2024-02-26T07:32:01;100455.25;;;19.46
53512;BMP280;39392;52.832;13.816;2024-02-26T07:34:28;100449.84;;;19.46
53512;BMP280;39392;52.832;13.816;2024-02-26T07:36:56;100454.44;;;19.46
53512;BMP280;39392;52.832;13.816;2024-02-26T07:39:23;100457.16;;;19.46
53512;BMP280;39392;52.832;13.816;2024-02-26T07:41:49;100462.38;;;19.47
53512;BMP280;39392;52.832;13.816;2024-02-26T07:44:18;100467.66;;;19.49
53512;BMP280;39392;52.832;13.816;2024-02-26T07:46:46;100461.19;;;19.50
53512;BMP280;39392;52.832;13.816;2024-02-26T07:49:12;100458.25;;;19.51
53512;BMP280;39392;52.832;13.816;2024-02-26T07:51:39;100459.56;;;19.55
53512;BMP280;39392;52.832;13.816;2024-02-26T07:54:06;100463.81;;;19.58
53512;BMP280;39392;52.832;13.816;2024-02-26T07:56:32;100461.94;;;19.58
53512;BMP280;39392;52.832;13.816;2024-02-26T07:58:59;100469.88;;;19.60
53512;BMP280;39392;52.832;13.816;2024-02-26T08:01:25;100465.28;;;19.60
53512;BMP280;39392;52.832;13.816;2024-02-26T08:03:53;100468.72;;;19.62
53512;BMP280;39392;52.832;13.816;2024-02-26T08:06:19;100463.91;;;19.64
53512;BMP280;39392;52.832;13.816;2024-02-26T08:08:46;100465.63;;;19.65
53512;BMP280;39392;52.832;13.816;2024-02-26T08:11:15;100472.38;;;19.70
53512;BMP280;39392;52.832;13.816;2024-02-26T08:13:42;100473.03;;;19.72
53512;BMP280;39392;52.832;13.816;2024-02-26T08:16:09;100467.41;;;19.73
53512;BMP280;39392;52.832;13.816;2024-02-26T08:18:35;100470.59;;;19.77
53512;BMP280;39392;52.832;13.816;2024-02-26T08:21:02;100464.97;;;19.78
53512;BMP280;39392;52.832;13.816;2024-02-26T08:23:29;100461.41;;;19.78
53512;BMP280;39392;52.832;13.816;2024-02-26T08:25:57;100469.56;;;19.78
53512;BMP280;39392;52.832;13.816;2024-02-26T08:28:23;100460.38;;;19.79
53512;BMP280;39392;52.832;13.816;2024-02-26T08:30:51;100462.06;;;19.80
53512;BMP280;39392;52.832;13.816;2024-02-26T08:33:17;100461.69;;;19.83
53512;BMP280;39392;52.832;13.816;2024-02-26T08:35:44;100470.47;;;19.85
53512;BMP280;39392;52.832;13.816;2024-02-26T08:38:11;100467.75;;;19.85
53512;BMP280;39392;52.832;13.816;2024-02-26T08:40:38;100464.03;;;19.86
53512;BMP280;39392;52.832;13.816;2024-02-26T08:43:04;100468.44;;;19.87
53512;BMP280;39392;52.832;13.816;2024-02-26T08:45:31;100468.59;;;19.85
53512;BMP280;39392;52.832;13.816;2024-02-26T08:47:57;100465.03;;;19.85
53512;BMP280;39392;52.832;13.816;2024-02-26T08:50:25;100469.47;;;19.86
53512;BMP280;39392;52.832;13.816;2024-02-26T08:52:53;100472.94;;;19.80
53512;BMP280;39392;52.832;13.816;2024-02-26T08:55:19;100467.84;;;19.77
53512;BMP280;39392;52.832;13.816;2024-02-26T08:57:47;100471.81;;;19.74
53512;BMP280;39392;52.832;13.816;2024-02-26T09:00:13;100468.25;;;19.74
53512;BMP280;39392;52.832;13.816;2024-02-26T09:02:41;100472.38;;;19.70
53512;BMP280;39392;52.832;13.816;2024-02-26T09:05:10;100460.00;;;19.67
53512;BMP280;39392;52.832;13.816;2024-02-26T09:07:36;100457.66;;;19.64
53512;BMP280;39392;52.832;13.816;2024-02-26T09:10:03;100466.84;;;19.63
53512;BMP280;39392;52.832;13.816;2024-02-26T09:12:30;100458.19;;;19.59
53512;BMP280;39392;52.832;13.816;2024-02-26T09:14:57;100461.94;;;19.58
53512;BMP280;39392;52.832;13.816;2024-02-26T09:17:23;100462.97;;;19.57
53512;BMP280;39392;52.832;13.816;2024-02-26T09:19:50;100465.00;;;19.55
53512;BMP280;39392;52.832;13.816;2024-02-26T09:22:16;100460.41;;;19.56
53512;BMP280;39392;52.832;13.816;2024-02-26T09:24:44;100461.28;;;19.56
53512;BMP280;39392;52.832;13.816;2024-02-26T09:27:10;100450.22;;;19.58
53512;BMP280;39392;52.832;13.816;2024-02-26T09:29:37;100460.56;;;19.62
53512;BMP280;39392;52.832;13.816;2024-02-26T09:32:04;100464.78;;;19.65
53512;BMP280;39392;52.832;13.816;2024-02-26T09:34:30;100464.41;;;19.68
53512;BMP280;39392;52.832;13.816;2024-02-26T09:36:57;100468.63;;;19.71
53512;BMP280;39392;52.832;13.816;2024-02-26T09:39:37;100467.41;;;19.73
53512;BMP280;39392;52.832;13.816;2024-02-26T09:42:04;100460.75;;;19.76
53512;BMP280;39392;52.832;13.816;2024-02-26T09:44:31;100464.13;;;19.78
53512;BMP280;39392;52.832;13.816;2024-02-26T09:47:01;100465.63;;;19.80
53512;BMP280;39392;52.832;13.816;2024-02-26T09:49:29;100473.41;;;19.83
53512;BMP280;39392;52.832;13.816;2024-02-26T09:51:56;100473.22;;;19.85
53512;BMP280;39392;52.832;13.816;2024-02-26T09:54:24;100473.03;;;19.86
53512;BMP280;39392;52.832;13.816;2024-02-26T09:56:52;100470.13;;;19.88
53512;BMP280;39392;52.832;13.816;2024-02-26T09:59:29;100474.34;;;19.90
53512;BMP280;39392;52.832;13.816;2024-02-26T10:01:59;100472.47;;;19.91
53512;BMP280;39392;52.832;13.816;2024-02-26T10:04:26;100475.81;;;19.93
53512;BMP280;39392;52.832;13.816;2024-02-26T10:06:53;100476.50;;;19.95
53512;BMP280;39392;52.832;13.816;2024-02-26T10:09:21;100473.56;;;19.97
53512;BMP280;39392;52.832;13.816;2024-02-26T10:11:47;100479.69;;;19.99
53512;BMP280;39392;52.832;13.816;2024-02-26T10:14:15;100481.38;;;20.00
53512;BMP280;39392;52.832;13.816;2024-02-26T10:16:42;100472.00;;;20.02
53512;BMP280;39392;52.832;13.816;2024-02-26T10:19:08;100477.44;;;20.02
53512;BMP280;39392;52.832;13.816;2024-02-26T10:21:36;100475.16;;;20.06
53512;BMP280;39392;52.832;13.816;2024-02-26T10:24:03;100479.75;;;20.05
53512;BMP280;39392;52.832;13.816;2024-02-26T10:26:30;100482.31;;;20.07
53512;BMP280;39392;52.832;13.816;2024-02-26T10:28:59;100484.81;;;20.08
53512;BMP280;39392;52.832;13.816;2024-02-26T10:31:25;100481.06;;;20.09
53512;BMP280;39392;52.832;13.816;2024-02-26T10:33:54;100483.63;;;20.11
53512;BMP280;39392;52.832;13.816;2024-02-26T10:36:21;100480.91;;;20.11
53512;BMP280;39392;52.832;13.816;2024-02-26T10:38:48;100485.28;;;20.12
53512;BMP280;39392;52.832;13.816;2024-02-26T10:41:14;100484.25;;;20.13
53512;BMP280;39392;52.832;13.816;2024-02-26T10:43:42;100482.38;;;20.13
53512;BMP280;39392;52.832;13.816;2024-02-26T10:46:08;100479.66;;;20.13
53512;BMP280;39392;52.832;13.816;2024-02-26T10:48:36;100478.81;;;20.13
53512;BMP280;39392;52.832;13.816;2024-02-26T10:51:03;100485.94;;;20.14
53512;BMP280;39392;52.832;13.816;2024-02-26T10:53:29;100476.09;;;20.13
53512;BMP280;39392;52.832;13.816;2024-02-26T10:56:03;100467.94;;;20.13
53512;BMP280;39392;52.832;13.816;2024-02-26T10:58:31;100467.94;;;20.13
53512;BMP280;39392;52.832;13.816;2024-02-26T11:00:58;100468.78;;;20.13
53512;BMP280;39392;52.832;13.816;2024-02-26T11:03:25;100472.16;;;20.15
53512;BMP280;39392;52.832;13.816;2024-02-26T11:05:52;100476.56;;;20.17
53512;BMP280;39392;52.832;13.816;2024-02-26T11:08:19;100468.41;;;20.17
53512;BMP280;39392;52.832;13.816;2024-02-26T11:10:51;100467.56;;;20.16
53512;BMP280;39392;52.832;13.816;2024-02-26T11:13:19;100467.09;;;20.12
53512;BMP280;39392;52.832;13.816;2024-02-26T11:15:52;100472.53;;;20.12
53512;BMP280;39392;52.832;13.816;2024-02-26T11:21:48;100468.78;;;20.13
53512;BMP280;39392;52.832;13.816;2024-02-26T11:24:15;100468.97;;;20.12
53512;BMP280;39392;52.832;13.816;2024-02-26T11:26:43;100463.69;;;20.10
53512;BMP280;39392;52.832;13.816;2024-02-26T11:29:12;100465.78;;;20.08
53512;BMP280;39392;52.832;13.816;2024-02-26T11:31:40;100458.47;;;20.09
53512;BMP280;39392;52.832;13.816;2024-02-26T11:34:07;100471.03;;;20.10
53512;BMP280;39392;52.832;13.816;2024-02-26T11:36:35;100469.13;;;20.10
53512;BMP280;39392;52.832;13.816;2024-02-26T11:39:03;100466.63;;;20.09
53512;BMP280;39392;52.832;13.816;2024-02-26T11:41:30;100467.47;;;20.09
53512;BMP280;39392;52.832;13.816;2024-02-26T11:43:58;100471.03;;;20.10
53512;BMP280;39392;52.832;13.816;2024-02-26T11:46:30;100476.47;;;20.10
53512;BMP280;39392;52.832;13.816;2024-02-26T11:51:51;100471.03;;;20.10
53512;BMP280;39392;52.832;13.816;2024-02-26T11:57:03;100467.66;;;20.08
53512;BMP280;39392;52.832;13.816;2024-02-26T11:59:39;100472.06;;;20.09
53512;BMP280;39392;52.832;13.816;2024-02-26T12:02:07;100485.47;;;20.10
53512;BMP280;39392;52.832;13.816;2024-02-26T12:04:34;100473.75;;;20.10
53512;BMP280;39392;52.832;13.816;2024-02-26T12:07:02;100472.72;;;20.11
53512;BMP280;39392;52.832;13.816;2024-02-26T12:09:39;100468.97;;;20.12
53512;BMP280;39392;52.832;13.816;2024-02-26T12:14:39;100472.53;;;20.12
53512;BMP280;39392;52.832;13.816;2024-02-26T12:17:07;100474.22;;;20.13
53512;BMP280;39392;52.832;13.816;2024-02-26T12:19:44;100473.38;;;20.13
53512;BMP280;39392;52.832;13.816;2024-02-26T12:22:15;100463.69;;;20.10
53512;BMP280;39392;52.832;13.816;2024-02-26T12:24:42;100474.59;;;20.10
53512;BMP280;39392;52.832;13.816;2024-02-26T12:27:08;100479.00;;;20.11
53512;BMP280;39392;52.832;13.816;2024-02-26T12:29:35;100473.56;;;20.11
53512;BMP280;39392;52.832;13.816;2024-02-26T12:32:02;100472.53;;;20.12
53512;BMP280;39392;52.832;13.816;2024-02-26T12:34:33;100467.09;;;20.12
53512;BMP280;39392;52.832;13.816;2024-02-26T12:36:59;100479.66;;;20.13
53512;BMP280;39392;52.832;13.816;2024-02-26T12:39:27;100479.47;;;20.15
53512;BMP280;39392;52.832;13.816;2024-02-26T12:41:53;100474.88;;;20.15
53512;BMP280;39392;52.832;13.816;2024-02-26T12:44:26;100475.72;;;20.16
53512;BMP280;39392;52.832;13.816;2024-02-26T12:46:59;100473.56;;;20.11
53512;BMP280;39392;52.832;13.816;2024-02-26T12:49:26;100468.31;;;20.10
53512;BMP280;39392;52.832;13.816;2024-02-26T12:51:53;100465.59;;;20.10
53512;BMP280;39392;52.832;13.816;2024-02-26T12:54:21;100467.28;;;20.11
53512;BMP280;39392;52.832;13.816;2024-02-26T12:56:48;100466.06;;;20.13
53512;BMP280;39392;52.832;13.816;2024-02-26T12:59:15;100475.25;;;20.12
53512;BMP280;39392;52.832;13.816;2024-02-26T13:01:41;100479.47;;;20.15
53512;BMP280;39392;52.832;13.816;2024-02-26T13:04:08;100490.38;;;20.15
53512;BMP280;39392;52.832;13.816;2024-02-26T13:06:35;100484.25;;;20.13
53512;BMP280;39392;52.832;13.816;2024-02-26T13:09:02;100483.03;;;20.15
53512;BMP280;39392;52.832;13.816;2024-02-26T13:11:31;100483.88;;;20.16
53512;BMP280;39392;52.832;13.816;2024-02-26T13:13:59;100494.75;;;20.16
53512;BMP280;39392;52.832;13.816;2024-02-26T13:16:26;100487.66;;;20.15
53512;BMP280;39392;52.832;13.816;2024-02-26T13:18:52;100485.09;;;20.13
53512;BMP280;39392;52.832;13.816;2024-02-26T13:21:19;100481.91;;;20.10
53512;BMP280;39392;52.832;13.816;2024-02-26T13:23:48;100486.50;;;20.09
53512;BMP280;39392;52.832;13.816;2024-02-26T13:26:16;100489.06;;;20.11
53512;BMP280;39392;52.832;13.816;2024-02-26T13:28:43;100482.56;;;20.12
53512;BMP280;39392;52.832;13.816;2024-02-26T13:31:09;100487.34;;;20.10
53512;BMP280;39392;52.832;13.816;2024-02-26T13:33:36;100488.59;;;20.07
53512;BMP280;39392;52.832;13.816;2024-02-26T13:36:03;100475.81;;;20.08
53512;BMP280;39392;52.832;13.816;2024-02-26T13:38:30;100472.25;;;20.07
53512;BMP280;39392;52.832;13.816;2024-02-26T13:40:59;100482.31;;;20.07
53512;BMP280;39392;52.832;13.816;2024-02-26T13:43:28;100482.69;;;20.04
53512;BMP280;39392;52.832;13.816;2024-02-26T13:45:55;100480.16;;;20.02
53512;BMP280;39392;52.832;13.816;2024-02-26T13:48:21;100482.69;;;20.04
53512;BMP280;39392;52.832;13.816;2024-02-26T13:50:49;100486.03;;;20.06
53512;BMP280;39392;52.832;13.816;2024-02-26T13:53:15;100490.28;;;20.08
53512;BMP280;39392;52.832;13.816;2024-02-26T13:55:42;100486.25;;;20.04